Time;durP1;ratioP1;P1;durP2;ratioP2;P2;SDS_P1;SDS_P2;PMS_P1;PMS_P2;Temp;Humidity;BMP_temperature;BMP_pressure;BME280_temperature;BME280_humidity;BME280_pressure;Samples;Min_cycle;Max_cycle;Signal;HPM_P1;HPM_P2
2023/10/13 00:00:30;;;;;;;44.92;25.77;;;15.70;99.90;;;;;;5102566;28;20501;-66
2023/10/13 00:03:00;;;;;;;42.03;26.00;;;15.70;99.90;;;;;;5098860;28;20051;-66
2023/10/13 00:05:27;;;;;;;41.10;25.95;;;15.80;99.90;;;;;;5108811;27;20040;-66
2023/10/13 00:07:53;;;;;;;41.55;24.48;;;15.90;99.90;;;;;;5105126;28;21674;-66
2023/10/13 00:10:18;;;;;;;39.40;23.95;;;15.80;99.90;;;;;;5106432;27;20036;-66
2023/10/13 00:12:49;;;;;;;34.35;23.70;;;15.90;99.90;;;;;;5136448;27;20035;-66
2023/10/13 00:15:27;;;;;;;38.13;24.08;;;16.00;99.90;;;;;;5105348;27;20082;-66
2023/10/13 00:17:55;;;;;;;37.65;24.15;;;16.00;99.90;;;;;;5104592;27;20055;-66
2023/10/13 00:20:37;;;;;;;42.38;26.42;;;16.00;99.90;;;;;;5103398;27;20069;-66
2023/10/13 00:23:03;;;;;;;40.35;25.40;;;16.00;99.90;;;;;;5102978;28;20047;-66
2023/10/13 00:25:31;;;;;;;39.22;25.45;;;16.10;99.90;;;;;;5105236;27;20059;-66
2023/10/13 00:27:57;;;;;;;43.97;27.33;;;16.10;99.90;;;;;;5106382;28;20040;-66
2023/10/13 00:30:33;;;;;;;42.25;25.65;;;16.10;99.90;;;;;;5122147;27;20040;-66
2023/10/13 00:32:59;;;;;;;42.03;26.02;;;16.30;99.90;;;;;;5138781;27;20044;-66
2023/10/13 00:35:35;;;;;;;33.92;23.90;;;16.10;99.90;;;;;;5137212;27;20492;-66
2023/10/13 00:38:16;;;;;;;42.65;26.25;;;16.20;99.90;;;;;;5105553;27;20036;-66
2023/10/13 00:40:44;;;;;;;43.55;25.08;;;16.20;99.90;;;;;;5138654;27;20084;-66
2023/10/13 00:46:05;;;;;;;36.58;23.77;;;16.30;99.90;;;;;;5138178;27;20142;-66
2023/10/13 00:48:43;;;;;;;43.42;23.35;;;16.30;99.90;;;;;;5104382;27;20043;-66
2023/10/13 00:53:56;;;;;;;35.35;22.48;;;16.40;99.90;;;;;;5105045;27;20051;-67
2023/10/13 00:56:26;;;;;;;36.35;21.67;;;16.30;99.90;;;;;;5106233;28;20103;-67
2023/10/13 00:58:53;;;;;;;35.40;21.95;;;16.40;99.90;;;;;;5104913;28;20033;-66
2023/10/13 01:01:28;;;;;;;35.60;20.75;;;16.40;99.90;;;;;;5103775;27;20040;-66
2023/10/13 01:04:00;;;;;;;31.75;21.17;;;16.40;99.90;;;;;;5105151;27;20557;-66
2023/10/13 01:06:28;;;;;;;37.88;20.83;;;16.30;99.90;;;;;;5134591;27;20075;-66
2023/10/13 01:09:14;;;;;;;33.63;21.00;;;16.40;99.90;;;;;;5105347;27;20056;-66
2023/10/13 01:11:52;;;;;;;33.30;20.98;;;16.40;99.90;;;;;;5103616;27;20040;-66
2023/10/13 01:14:20;;;;;;;32.75;20.02;;;16.40;99.90;;;;;;5103262;27;20044;-66
2023/10/13 01:16:47;;;;;;;32.70;20.77;;;16.40;99.90;;;;;;5100546;27;20469;-66
2023/10/13 01:19:24;;;;;;;33.05;20.02;;;16.40;99.90;;;;;;5103629;27;20154;-67
2023/10/13 01:21:54;;;;;;;32.55;19.27;;;16.40;99.90;;;;;;5098807;28;20496;-66
2023/10/13 01:24:23;;;;;;;37.55;19.92;;;16.40;99.90;;;;;;5100336;27;20050;-66
2023/10/13 01:26:51;;;;;;;30.17;20.48;;;16.40;99.90;;;;;;5102209;28;20048;-66
2023/10/13 01:29:18;;;;;;;37.90;20.90;;;16.40;99.90;;;;;;5117457;27;20058;-66
2023/10/13 01:31:46;;;;;;;31.98;20.05;;;16.50;99.90;;;;;;5101267;28;20055;-66
2023/10/13 01:34:22;;;;;;;32.03;20.85;;;16.50;99.90;;;;;;5099429;28;20044;-66
2023/10/13 01:36:50;;;;;;;31.58;20.25;;;16.50;99.90;;;;;;5085972;28;20035;-66
2023/10/13 01:39:17;;;;;;;35.28;22.17;;;16.50;99.90;;;;;;5103624;28;20540;-66
2023/10/13 01:41:43;;;;;;;36.40;21.55;;;16.50;99.90;;;;;;5100141;28;20811;-66
2023/10/13 01:44:12;;;;;;;32.92;21.40;;;16.50;99.90;;;;;;5103024;27;20046;-66
2023/10/13 01:46:42;;;;;;;34.20;22.42;;;16.50;99.90;;;;;;5106203;27;20031;-66
2023/10/13 01:49:08;;;;;;;36.20;21.15;;;16.50;99.90;;;;;;5104391;27;20047;-66
2023/10/13 01:51:34;;;;;;;31.42;21.42;;;16.50;99.90;;;;;;5105423;27;20062;-67
2023/10/13 01:54:02;;;;;;;28.33;20.75;;;16.50;99.90;;;;;;5099457;28;20032;-66
2023/10/13 01:56:30;;;;;;;30.38;21.02;;;16.50;99.90;;;;;;5137756;27;20169;-66
2023/10/13 01:58:56;;;;;;;30.80;22.42;;;16.50;99.90;;;;;;5131986;27;20087;-66
2023/10/13 02:01:27;;;;;;;33.08;21.35;;;16.50;99.90;;;;;;5102181;27;20540;-66
2023/10/13 02:04:04;;;;;;;29.75;21.10;;;16.50;99.90;;;;;;5135082;27;20039;-66
2023/10/13 02:06:36;;;;;;;31.00;22.38;;;16.50;99.90;;;;;;5101351;28;20048;-66
2023/10/13 02:09:16;;;;;;;30.88;20.80;;;16.50;99.90;;;;;;5128871;27;20048;-66
2023/10/13 02:11:46;;;;;;;28.92;21.17;;;16.50;99.90;;;;;;5136004;27;20040;-66
2023/10/13 02:14:16;;;;;;;32.45;21.52;;;16.50;99.90;;;;;;5131623;27;20043;-66
2023/10/13 02:16:41;;;;;;;27.95;21.73;;;16.50;99.90;;;;;;5104114;27;20088;-66
2023/10/13 02:19:15;;;;;;;29.75;20.40;;;16.50;99.90;;;;;;5102152;27;20770;-66
2023/10/13 02:21:43;;;;;;;30.40;20.90;;;16.50;99.90;;;;;;5102556;27;20118;-66
2023/10/13 02:24:13;;;;;;;31.17;21.25;;;16.50;99.90;;;;;;5101955;28;20074;-67
2023/10/13 02:26:42;;;;;;;31.63;21.23;;;16.50;99.90;;;;;;5102125;27;20130;-66
2023/10/13 02:29:07;;;;;;;30.25;22.40;;;16.50;99.90;;;;;;5101918;27;20045;-66
2023/10/13 02:31:37;;;;;;;30.85;22.40;;;16.60;99.90;;;;;;5104632;27;20035;-66
2023/10/13 02:34:12;;;;;;;30.35;22.30;;;16.50;99.90;;;;;;5099567;27;20083;-67
2023/10/13 02:36:51;;;;;;;24.85;20.05;;;16.60;99.90;;;;;;5103313;27;20069;-67
2023/10/13 02:39:26;;;;;;;27.75;22.30;;;16.60;99.90;;;;;;5135272;27;20101;-66
2023/10/13 02:41:52;;;;;;;27.07;19.97;;;16.50;99.90;;;;;;5102808;28;20531;-66
2023/10/13 02:44:28;;;;;;;28.13;21.17;;;16.60;99.90;;;;;;5102297;28;20035;-66
2023/10/13 02:46:57;;;;;;;23.65;19.20;;;16.60;99.90;;;;;;5134568;27;20055;-67
2023/10/13 02:49:26;;;;;;;25.42;19.48;;;16.60;99.90;;;;;;5135303;27;20514;-67
2023/10/13 02:51:56;;;;;;;26.25;19.88;;;16.60;99.90;;;;;;5103748;28;20048;-66
2023/10/13 02:54:21;;;;;;;26.65;19.08;;;16.50;99.90;;;;;;5100238;28;20055;-67
2023/10/13 02:56:56;;;;;;;24.38;18.63;;;16.60;99.90;;;;;;5101567;28;20035;-67
2023/10/13 03:04:48;;;;;;;24.70;19.60;;;16.50;99.90;;;;;;5105656;27;20437;-67
2023/10/13 03:07:22;;;;;;;23.02;18.73;;;16.60;99.90;;;;;;5102950;28;20036;-67
2023/10/13 03:09:52;;;;;;;26.33;19.50;;;16.50;99.90;;;;;;5134884;27;20039;-67
2023/10/13 03:12:18;;;;;;;24.83;17.90;;;16.50;99.90;;;;;;5105850;27;20056;-67
2023/10/13 03:14:56;;;;;;;28.50;19.67;;;16.50;99.90;;;;;;5103732;27;20039;-67
2023/10/13 03:17:33;;;;;;;30.52;19.35;;;16.50;99.90;;;;;;5097188;28;20039;-67
2023/10/13 03:19:59;;;;;;;24.67;18.70;;;16.50;99.90;;;;;;5137855;27;20035;-67
2023/10/13 03:22:31;;;;;;;27.77;18.08;;;16.50;99.90;;;;;;5114948;27;20040;-67
2023/10/13 03:25:13;;;;;;;28.30;17.58;;;16.50;99.90;;;;;;5133570;27;20055;-67
2023/10/13 03:27:41;;;;;;;24.77;16.75;;;16.50;99.90;;;;;;5101127;28;20043;-67
2023/10/13 03:30:15;;;;;;;22.15;16.88;;;16.50;99.90;;;;;;5102144;28;20093;-67
2023/10/13 03:32:53;;;;;;;22.45;16.88;;;16.50;99.90;;;;;;5098321;28;20055;-67
2023/10/13 03:35:24;;;;;;;21.42;15.70;;;16.50;99.90;;;;;;5102825;28;20092;-67
2023/10/13 03:37:54;;;;;;;22.17;15.60;;;16.50;99.90;;;;;;5132718;27;20046;-67
2023/10/13 03:43:10;;;;;;;21.77;15.55;;;16.50;99.90;;;;;;5110112;27;20642;-67
2023/10/13 03:45:42;;;;;;;19.67;15.20;;;16.50;99.90;;;;;;5103293;28;20048;-67
2023/10/13 03:48:27;;;;;;;21.92;15.70;;;16.50;99.90;;;;;;5103536;27;20113;-67
2023/10/13 03:51:06;;;;;;;21.42;16.10;;;16.50;99.90;;;;;;5100866;28;20491;-67
2023/10/13 03:53:54;;;;;;;23.77;17.02;;;16.50;99.90;;;;;;5101887;28;20547;-67
2023/10/13 03:56:28;;;;;;;22.52;16.15;;;16.50;99.90;;;;;;5136604;27;20039;-67
2023/10/13 03:58:58;;;;;;;25.15;15.88;;;16.50;99.90;;;;;;5120003;27;20036;-67
2023/10/13 04:01:43;;;;;;;20.25;16.00;;;16.50;99.90;;;;;;5137138;27;20501;-67
2023/10/13 04:04:14;;;;;;;21.38;16.73;;;16.50;99.90;;;;;;5107540;27;20067;-67
2023/10/13 04:17:23;;;;;;;;;;;16.50;99.90;;;;;;5136900;27;20043;-67
2023/10/13 04:20:51;;;;;;;22.50;16.15;;;16.50;99.90;;;;;;5102840;27;20289;-67
2023/10/13 04:36:14;;;;;;;24.08;16.77;;;16.40;99.90;;;;;;5103998;27;20127;-67
2023/10/13 04:39:00;;;;;;;23.10;17.63;;;16.40;99.90;;;;;;5103467;28;20040;-67
2023/10/13 04:49:35;;;;;;;23.23;17.35;;;16.50;99.90;;;;;;5101789;27;20493;-67
2023/10/13 06:29:40;;;;;;;4.95;4.03;;;16.20;99.90;;;;;;5134416;27;20071;-67
2023/10/13 06:32:12;;;;;;;4.60;4.10;;;16.30;99.90;;;;;;5107033;27;20378;-69
2023/10/13 06:34:44;;;;;;;4.55;3.38;;;16.20;99.90;;;;;;5105587;28;20047;-67
2023/10/13 06:37:32;;;;;;;3.88;3.42;;;16.30;99.90;;;;;;5130978;27;20123;-67
2023/10/13 06:40:05;;;;;;;3.67;2.92;;;16.30;99.90;;;;;;5099797;27;20063;-67
2023/10/13 06:42:34;;;;;;;4.82;3.42;;;16.30;99.90;;;;;;5100424;28;20044;-67
2023/10/13 06:45:08;;;;;;;3.90;3.05;;;16.40;99.90;;;;;;5102326;28;20047;-68
2023/10/13 06:47:39;;;;;;;5.93;3.00;;;16.40;99.90;;;;;;5100881;27;20096;-67
2023/10/13 06:50:15;;;;;;;4.60;3.00;;;16.40;99.90;;;;;;5102195;27;20052;-67
2023/10/13 06:52:43;;;;;;;6.50;3.40;;;16.40;99.90;;;;;;5135151;27;20048;-67
2023/10/13 06:55:15;;;;;;;8.45;3.80;;;16.40;99.90;;;;;;5103344;28;20049;-67
2023/10/13 06:57:43;;;;;;;4.65;3.03;;;16.40;99.90;;;;;;5103877;27;20088;-67
2023/10/13 07:00:19;;;;;;;5.78;2.95;;;16.50;99.90;;;;;;5105839;27;20159;-67
2023/10/13 07:02:45;;;;;;;4.32;3.03;;;16.50;99.90;;;;;;5102710;28;20071;-67
2023/10/13 07:05:11;;;;;;;10.38;3.63;;;16.50;99.90;;;;;;5104295;28;20054;-67
2023/10/13 07:07:39;;;;;;;5.70;3.10;;;16.50;99.90;;;;;;5104994;27;20051;-67
2023/10/13 07:10:12;;;;;;;6.45;2.95;;;16.60;99.90;;;;;;5105331;27;20040;-67
2023/10/13 07:12:43;;;;;;;5.97;2.90;;;16.50;99.90;;;;;;5097702;28;20086;-67
2023/10/13 07:17:44;;;;;;;8.15;3.30;;;16.60;99.90;;;;;;5099566;27;20051;-67
2023/10/13 07:20:15;;;;;;;12.50;3.30;;;16.50;99.90;;;;;;5094200;27;20051;-67
2023/10/13 07:22:57;;;;;;;6.63;3.90;;;16.50;99.90;;;;;;5101432;28;20042;-67
2023/10/13 07:25:26;;;;;;;5.85;2.70;;;16.50;99.90;;;;;;5097150;27;20098;-67
2023/10/13 07:27:54;;;;;;;5.70;3.00;;;16.50;99.90;;;;;;5102224;28;20063;-67
2023/10/13 07:30:26;;;;;;;7.63;2.97;;;16.60;99.90;;;;;;5096570;28;20046;-67
2023/10/13 07:32:52;;;;;;;7.47;3.15;;;16.60;99.90;;;;;;5102705;28;20052;-67
2023/10/13 07:35:20;;;;;;;9.52;2.95;;;16.60;99.90;;;;;;5102509;28;20042;-67
2023/10/13 07:37:51;;;;;;;12.80;3.22;;;16.60;99.90;;;;;;5097648;28;20047;-67
2023/10/13 07:42:50;;;;;;;12.57;3.92;;;16.60;99.90;;;;;;5097797;28;20435;-67
2023/10/13 07:45:22;;;;;;;10.18;2.88;;;16.60;99.90;;;;;;5098615;28;20050;-67
2023/10/13 07:47:49;;;;;;;11.02;3.67;;;16.60;99.90;;;;;;5101316;28;20063;-67
2023/10/13 07:50:24;;;;;;;10.38;3.47;;;16.60;99.90;;;;;;5094679;28;20068;-67
2023/10/13 07:52:59;;;;;;;12.13;3.70;;;16.60;99.90;;;;;;5095190;28;20063;-67
2023/10/13 07:55:25;;;;;;;9.63;3.38;;;16.60;99.90;;;;;;5098339;28;20090;-67
2023/10/13 07:57:53;;;;;;;8.93;3.03;;;16.70;99.90;;;;;;5101136;27;20062;-67
2023/10/13 08:00:38;;;;;;;13.13;4.50;;;16.60;99.90;;;;;;5102107;28;20052;-67
2023/10/13 08:08:25;;;;;;;7.03;3.80;;;16.60;99.90;;;;;;5095466;28;20043;-67
2023/10/13 08:10:55;;;;;;;11.43;4.43;;;16.70;99.90;;;;;;5096618;28;20040;-67
2023/10/13 08:13:22;;;;;;;8.68;4.68;;;16.70;99.90;;;;;;5094649;28;20040;-67
2023/10/13 08:15:48;;;;;;;8.35;4.25;;;16.70;99.90;;;;;;5097823;28;20085;-67
2023/10/13 08:18:19;;;;;;;9.27;4.45;;;16.70;99.90;;;;;;5085283;28;20482;-67
2023/10/13 08:20:45;;;;;;;12.75;4.57;;;16.70;99.90;;;;;;5096262;28;20051;-67
2023/10/13 08:23:13;;;;;;;9.25;3.78;;;16.80;99.90;;;;;;5096904;28;20059;-67
2023/10/13 08:26:29;;;;;;;8.05;3.92;;;16.80;99.90;;;;;;5101153;28;20501;-67
2023/10/13 08:31:22;;;;;;;10.65;4.53;;;16.80;99.90;;;;;;5104711;27;20040;-67
2023/10/13 08:33:48;;;;;;;11.93;4.38;;;16.70;99.90;;;;;;5101422;28;20104;-67
2023/10/13 08:36:30;;;;;;;10.65;4.82;;;16.80;99.90;;;;;;5104423;27;20130;-67
2023/10/13 08:38:56;;;;;;;7.50;4.07;;;16.80;99.90;;;;;;5104301;28;20043;-67
2023/10/13 08:44:03;;;;;;;8.98;4.82;;;16.80;99.90;;;;;;5101064;27;20056;-67
2023/10/13 08:46:38;;;;;;;12.05;4.88;;;16.90;99.90;;;;;;5103060;27;20031;-67
2023/10/13 08:49:17;;;;;;;12.77;5.72;;;16.90;99.90;;;;;;5101260;27;20125;-67
2023/10/13 08:51:49;;;;;;;6.15;4.45;;;16.90;99.90;;;;;;5105320;27;20035;-67
2023/10/13 08:54:19;;;;;;;15.90;5.97;;;17.00;99.90;;;;;;5102691;27;20036;-67
2023/10/13 08:56:56;;;;;;;13.32;6.25;;;17.00;99.90;;;;;;5097187;27;20089;-67
2023/10/13 08:59:23;;;;;;;14.30;5.68;;;17.10;99.90;;;;;;5101389;28;20575;-67
2023/10/13 09:01:59;;;;;;;16.73;6.85;;;17.10;99.90;;;;;;5100153;27;20031;-67
2023/10/13 09:12:12;;;;;;;12.32;6.72;;;17.40;99.90;;;;;;5100133;27;20044;-67
2023/10/13 09:14:47;;;;;;;13.30;5.93;;;17.40;99.90;;;;;;5116521;27;20056;-67
2023/10/13 09:17:34;;;;;;;11.23;6.18;;;17.50;99.90;;;;;;5130978;27;20047;-67
2023/10/13 09:20:32;;;;;;;13.32;5.85;;;17.50;99.90;;;;;;5099628;28;20081;-67
2023/10/13 09:25:37;;;;;;;10.40;5.30;;;17.60;99.90;;;;;;5134771;27;20051;-68
2023/10/13 09:28:14;;;;;;;9.70;5.85;;;17.70;99.90;;;;;;5098118;27;20089;-67
2023/10/13 09:30:47;;;;;;;14.25;5.40;;;17.60;99.90;;;;;;5101647;28;20047;-67
2023/10/13 09:33:16;;;;;;;11.23;5.28;;;17.70;99.90;;;;;;5098476;28;20054;-67
2023/10/13 09:35:51;;;;;;;13.77;5.38;;;17.70;99.90;;;;;;5100149;28;20039;-67
2023/10/13 09:38:17;;;;;;;;;;;17.80;99.90;;;;;;5097067;28;20116;-67
2023/10/13 09:40:50;;;;;;;7.97;4.25;;;17.90;99.90;;;;;;5099422;28;19924;-67
2023/10/13 09:43:17;;;;;;;10.50;4.10;;;17.90;99.90;;;;;;5099771;27;20031;-67
2023/10/13 09:46:02;;;;;;;9.23;3.97;;;18.00;99.90;;;;;;5131749;27;20047;-67
2023/10/13 09:48:32;;;;;;;6.75;3.88;;;18.10;99.90;;;;;;5100028;27;20055;-67
2023/10/13 09:51:03;;;;;;;7.47;4.40;;;18.10;99.90;;;;;;5117120;27;20081;-67
2023/10/13 09:53:30;;;;;;;9.75;3.78;;;18.20;99.90;;;;;;5099251;28;20044;-67
2023/10/13 09:56:19;;;;;;;14.80;3.75;;;18.30;99.90;;;;;;5097983;28;20359;-67
2023/10/13 09:59:42;;;;;;;11.68;4.32;;;18.30;99.90;;;;;;5100954;27;20039;-67
2023/10/13 10:02:09;;;;;;;13.43;5.25;;;18.50;99.90;;;;;;5004285;28;20046;-67
2023/10/13 10:04:51;;;;;;;11.45;4.05;;;18.50;99.90;;;;;;5111881;27;20058;-67
2023/10/13 10:07:28;;;;;;;11.80;3.72;;;18.50;99.90;;;;;;5100485;28;20067;-67
2023/10/13 10:09:59;;;;;;;12.13;5.13;;;18.50;99.90;;;;;;5098800;28;20043;-67
2023/10/13 10:12:57;;;;;;;9.50;4.30;;;18.60;99.90;;;;;;5129681;27;20050;-67
2023/10/13 10:15:34;;;;;;;10.73;5.25;;;18.60;99.90;;;;;;5100073;27;20043;-67
2023/10/13 10:18:00;;;;;;;9.02;3.90;;;18.60;99.90;;;;;;5100867;27;20069;-67
2023/10/13 10:20:44;;;;;;;12.35;3.75;;;18.70;99.90;;;;;;5099475;27;20044;-67
2023/10/13 10:23:21;;;;;;;10.70;3.88;;;18.70;99.90;;;;;;5101272;27;20043;-67
2023/10/13 10:25:47;;;;;;;10.05;4.28;;;18.80;99.90;;;;;;5098823;28;20036;-67
2023/10/13 10:28:15;;;;;;;7.50;4.15;;;18.90;99.90;;;;;;5128233;27;20050;-67
2023/10/13 10:30:42;;;;;;;10.55;5.07;;;19.00;99.90;;;;;;5101280;27;20043;-67
2023/10/13 10:33:12;;;;;;;9.93;4.35;;;19.00;99.90;;;;;;5102818;28;20438;-67
2023/10/13 10:35:43;;;;;;;7.88;3.20;;;19.20;99.90;;;;;;5099687;27;20044;-67
2023/10/13 10:41:04;;;;;;;14.85;4.95;;;19.20;99.90;;;;;;5099507;28;20404;-67
2023/10/13 10:43:41;;;;;;;13.52;4.35;;;19.30;99.90;;;;;;5102279;28;20036;-67
2023/10/13 10:46:10;;;;;;;10.52;3.95;;;19.40;99.90;;;;;;5127345;27;20516;-67
2023/10/13 10:48:42;;;;;;;11.93;4.00;;;19.60;99.90;;;;;;5099738;27;20076;-67
2023/10/13 10:51:21;;;;;;;9.73;3.15;;;19.70;99.90;;;;;;5101439;28;20100;-67
2023/10/13 10:53:51;;;;;;;18.10;4.30;;;19.80;99.90;;;;;;5101226;28;20406;-67
2023/10/13 10:56:36;;;;;;;10.48;3.60;;;19.80;99.90;;;;;;5096579;28;20071;-67
2023/10/13 10:59:18;;;;;;;12.73;4.20;;;19.90;99.90;;;;;;5100317;28;20066;-67
2023/10/13 11:01:50;;;;;;;9.77;3.45;;;19.80;99.90;;;;;;5101457;28;20409;-67
2023/10/13 11:06:56;;;;;;;10.68;3.47;;;19.70;99.90;;;;;;5101575;28;20051;-67
2023/10/13 11:09:36;;;;;;;11.25;3.97;;;19.60;99.90;;;;;;5101132;27;20490;-67
2023/10/13 11:12:24;;;;;;;13.13;4.53;;;19.60;99.90;;;;;;5099024;28;20047;-67
2023/10/13 11:15:22;;;;;;;14.48;4.43;;;19.60;99.90;;;;;;5131051;27;20048;-67
2023/10/13 11:17:54;;;;;;;10.75;3.72;;;19.60;99.90;;;;;;5099300;28;20096;-67
2023/10/13 11:20:33;;;;;;;12.50;4.20;;;19.70;99.90;;;;;;5131391;27;20043;-67
2023/10/13 11:22:59;;;;;;;11.70;3.83;;;19.70;99.90;;;;;;5125513;27;20040;-67
2023/10/13 11:25:34;;;;;;;10.00;3.90;;;19.80;99.90;;;;;;5096329;27;20453;-67
2023/10/13 11:28:10;;;;;;;13.25;3.63;;;19.70;99.90;;;;;;5096920;28;20038;-67
2023/10/13 11:30:40;;;;;;;12.88;4.50;;;19.70;99.90;;;;;;5097214;28;20146;-67
2023/10/13 11:33:07;;;;;;;12.95;4.50;;;19.70;99.90;;;;;;5100361;28;20074;-67
2023/10/13 11:38:26;;;;;;;12.48;4.25;;;19.70;99.90;;;;;;5099660;28;20414;-67
2023/10/13 11:48:42;;;;;;;10.63;3.97;;;19.60;99.90;;;;;;5131635;27;20060;-67
2023/10/13 11:51:23;;;;;;;13.45;4.55;;;19.60;99.90;;;;;;5084157;28;20486;-67
2023/10/13 11:53:52;;;;;;;15.38;4.55;;;19.60;99.90;;;;;;5099042;28;20047;-67
2023/10/13 11:56:22;;;;;;;11.20;4.03;;;19.60;99.90;;;;;;5129326;27;20163;-67
2023/10/13 11:58:48;;;;;;;10.40;3.90;;;19.50;99.90;;;;;;5099109;27;20036;-67
2023/10/13 12:09:13;;;;;;;12.00;4.27;;;19.50;99.90;;;;;;5133805;27;20083;-67
2023/10/13 12:11:41;;;;;;;9.38;4.63;;;19.50;99.90;;;;;;5105038;27;20479;-67
2023/10/13 12:14:19;;;;;;;12.68;3.88;;;19.50;99.90;;;;;;5103155;27;20137;-68
2023/10/13 12:16:55;;;;;;;9.45;4.15;;;19.50;99.90;;;;;;5101175;28;20392;-67
2023/10/13 12:19:23;;;;;;;19.23;4.55;;;19.50;99.90;;;;;;5102594;27;20054;-67
2023/10/13 12:21:56;;;;;;;12.95;4.70;;;19.50;99.90;;;;;;5105800;28;20044;-67
2023/10/13 12:24:30;;;;;;;13.57;4.95;;;19.50;99.90;;;;;;5131006;27;20058;-67
2023/10/13 12:26:57;;;;;;;12.77;4.22;;;19.50;99.90;;;;;;5104668;27;20063;-67
2023/10/13 12:29:29;;;;;;;13.50;4.82;;;19.50;99.90;;;;;;5102252;27;20050;-67
2023/10/13 12:32:14;;;;;;;9.90;4.40;;;19.50;99.90;;;;;;5101614;27;20051;-67
2023/10/13 12:51:20;;;;;;;16.00;5.37;;;19.60;99.90;;;;;;5102353;28;20047;-67
2023/10/13 12:53:52;;;;;;;15.20;4.50;;;19.60;99.90;;;;;;5135651;27;20047;-67
2023/10/13 12:56:25;;;;;;;15.23;4.75;;;19.70;99.90;;;;;;5102576;28;21106;-67
2023/10/13 12:58:52;;;;;;;15.77;5.18;;;19.70;99.90;;;;;;5099372;28;20058;-67
2023/10/13 13:01:20;;;;;;;13.63;4.97;;;19.70;99.90;;;;;;5100632;28;20046;-67
2023/10/13 13:03:46;;;;;;;12.00;4.55;;;19.80;99.90;;;;;;5106691;27;20522;-67
2023/10/13 13:06:25;;;;;;;7.70;3.97;;;19.80;99.90;;;;;;5104552;27;20089;-67
2023/10/13 13:08:55;;;;;;;12.88;5.82;;;19.80;99.90;;;;;;5134111;27;20039;-68
2023/10/13 13:11:22;;;;;;;9.85;5.03;;;19.70;99.90;;;;;;5099158;28;20494;-68
2023/10/13 13:13:47;;;;;;;11.90;4.63;;;19.70;99.90;;;;;;5103607;27;20631;-68
2023/10/13 13:16:30;;;;;;;12.98;4.65;;;19.60;99.90;;;;;;5100438;27;20044;-68
2023/10/13 13:18:56;;;;;;;10.80;4.32;;;19.60;99.90;;;;;;5086580;28;20044;-68
2023/10/13 13:21:24;;;;;;;10.45;5.03;;;19.60;99.90;;;;;;5099055;27;20047;-68
2023/10/13 13:23:51;;;;;;;9.80;4.72;;;19.50;99.90;;;;;;5100342;27;20680;-68
2023/10/13 13:26:17;;;;;;;13.27;4.80;;;19.50;99.90;;;;;;5101457;27;20158;-68
2023/10/13 13:28:52;;;;;;;11.15;4.60;;;19.50;99.90;;;;;;5097525;27;20535;-68
2023/10/13 13:31:26;;;;;;;13.90;4.70;;;19.50;99.90;;;;;;5098319;27;20044;-68
2023/10/13 13:33:52;;;;;;;17.27;4.55;;;19.50;99.90;;;;;;5098962;27;20067;-68
2023/10/13 13:36:19;;;;;;;11.65;5.40;;;19.50;99.90;;;;;;5098234;27;20514;-68
2023/10/13 13:38:54;;;;;;;10.27;5.70;;;19.50;99.90;;;;;;5095655;27;20368;-68
2023/10/13 13:41:20;;;;;;;;;;;19.50;99.90;;;;;;5088147;28;20041;-68
2023/10/13 13:43:53;;;;;;;13.77;5.25;;;19.50;99.90;;;;;;5099035;27;20010;-68
2023/10/13 13:46:24;;;;;;;11.98;5.03;;;19.40;99.90;;;;;;5105645;27;20046;-68
2023/10/13 13:48:51;;;;;;;10.50;5.13;;;19.30;99.90;;;;;;5096854;27;20885;-68
2023/10/13 13:51:26;;;;;;;11.13;5.45;;;19.30;99.90;;;;;;5095014;27;20052;-68
2023/10/13 13:53:52;;;;;;;10.38;5.10;;;19.20;99.90;;;;;;5100258;27;20104;-68
2023/10/13 13:56:19;;;;;;;12.27;4.75;;;19.20;99.90;;;;;;5098095;27;20149;-68
2023/10/13 13:58:49;;;;;;;13.63;4.55;;;19.10;99.90;;;;;;5100297;27;20431;-68
2023/10/13 14:01:18;;;;;;;13.10;5.13;;;19.20;99.90;;;;;;5130219;27;20493;-68
2023/10/13 14:03:46;;;;;;;12.32;5.22;;;19.00;99.90;;;;;;5097260;27;20046;-68
2023/10/13 14:06:26;;;;;;;17.17;5.13;;;18.90;99.90;;;;;;5095485;27;20224;-68
2023/10/13 14:08:59;;;;;;;15.27;5.75;;;19.00;99.90;;;;;;5080945;28;20519;-68
2023/10/13 14:14:11;;;;;;;15.50;5.00;;;18.90;99.90;;;;;;5097301;28;20158;-68
2023/10/13 14:16:44;;;;;;;10.90;5.65;;;18.80;99.90;;;;;;5094850;27;20044;-68
2023/10/13 14:19:47;;;;;;;14.63;5.78;;;18.80;99.90;;;;;;5097761;28;20048;-68
2023/10/13 14:22:06;;;;;;;13.25;4.53;;;18.80;99.90;;;;;;5092231;27;20036;-68
2023/10/13 14:24:34;;;;;;;15.80;6.03;;;18.80;99.90;;;;;;5102417;27;20031;-68
2023/10/13 14:27:08;;;;;;;17.92;4.90;;;18.80;99.90;;;;;;5097998;27;20066;-68
2023/10/13 14:29:39;;;;;;;13.52;6.22;;;18.80;99.90;;;;;;5098174;27;20058;-68
2023/10/13 14:32:13;;;;;;;14.00;6.03;;;18.80;99.90;;;;;;5097995;28;20055;-68
2023/10/13 14:34:48;;;;;;;11.13;5.60;;;18.80;99.90;;;;;;5094032;28;20040;-68
2023/10/13 14:37:14;;;;;;;;;;;18.80;99.90;;;;;;5099723;27;20328;-68
2023/10/13 14:39:40;;;;;;;;;;;18.80;99.90;;;;;;5131249;27;19920;-68
2023/10/13 14:42:06;;;;;;;18.60;5.63;;;18.80;99.90;;;;;;5096892;27;20029;-68
2023/10/13 14:44:35;;;;;;;15.98;6.32;;;18.80;99.90;;;;;;5095482;27;20047;-68
2023/10/13 14:47:01;;;;;;;15.27;5.72;;;18.80;99.90;;;;;;5094080;27;20039;-68
2023/10/13 14:49:27;;;;;;;9.18;4.80;;;18.70;99.90;;;;;;5098901;27;20301;-68
2023/10/13 14:51:55;;;;;;;14.40;5.30;;;18.80;99.90;;;;;;5099640;27;20412;-68
2023/10/13 14:54:32;;;;;;;14.35;5.20;;;18.80;99.90;;;;;;5096931;28;20043;-68
2023/10/13 14:57:01;;;;;;;9.65;4.80;;;18.80;99.90;;;;;;5102313;27;20774;-68
2023/10/13 14:59:32;;;;;;;17.98;6.13;;;18.80;99.90;;;;;;5097657;28;20519;-69
2023/10/13 15:01:59;;;;;;;18.00;6.05;;;18.80;99.90;;;;;;5096729;27;20086;-68
2023/10/13 15:04:25;;;;;;;15.93;7.40;;;18.70;99.90;;;;;;5100762;27;20517;-68
2023/10/13 15:06:54;;;;;;;15.15;6.72;;;18.60;99.90;;;;;;5097872;27;20043;-68
2023/10/13 15:09:23;;;;;;;16.23;7.50;;;18.50;99.90;;;;;;5100753;28;20101;-68
2023/10/13 15:11:52;;;;;;;19.50;7.35;;;18.50;99.90;;;;;;5128685;27;20071;-68
2023/10/13 15:14:20;;;;;;;15.82;6.28;;;18.30;99.90;;;;;;5100708;28;20191;-68
2023/10/13 15:16:46;;;;;;;12.50;6.35;;;18.30;99.90;;;;;;5094452;27;20094;-68
2023/10/13 15:19:12;;;;;;;18.15;7.68;;;18.30;99.90;;;;;;5095049;28;20062;-68
2023/10/13 15:21:39;;;;;;;15.20;6.50;;;18.20;99.90;;;;;;5096448;28;20155;-68
2023/10/13 15:24:27;;;;;;;15.88;6.03;;;18.10;99.90;;;;;;5130260;27;20055;-68
2023/10/13 15:26:57;;;;;;;13.13;6.32;;;18.10;99.90;;;;;;5099012;28;20876;-68
2023/10/13 15:29:37;;;;;;;16.48;7.43;;;18.10;99.90;;;;;;5096854;28;20505;-69
2023/10/13 15:34:28;;;;;;;17.17;7.80;;;18.00;99.90;;;;;;5132471;27;20048;-68
2023/10/13 15:36:55;;;;;;;17.48;7.28;;;18.00;99.90;;;;;;5102959;27;20096;-68
2023/10/13 15:39:28;;;;;;;14.27;6.25;;;18.00;99.90;;;;;;5103151;27;20498;-68
2023/10/13 15:41:58;;;;;;;13.45;6.53;;;18.00;99.90;;;;;;5104565;28;20497;-68
2023/10/13 15:44:25;;;;;;;17.05;6.28;;;17.90;99.90;;;;;;5130425;27;20229;-68
2023/10/13 15:46:55;;;;;;;11.15;5.22;;;18.00;99.90;;;;;;5102196;28;20992;-68
2023/10/13 15:49:21;;;;;;;12.82;6.13;;;18.00;99.90;;;;;;5100650;27;20047;-68
2023/10/13 15:51:47;;;;;;;12.93;6.38;;;17.90;99.90;;;;;;5102891;28;20043;-68
2023/10/13 15:54:16;;;;;;;15.95;6.85;;;18.00;99.90;;;;;;5102047;27;20052;-68
2023/10/13 15:56:49;;;;;;;16.77;6.40;;;17.90;99.90;;;;;;5102240;27;21274;-68
2023/10/13 15:59:15;;;;;;;10.98;5.95;;;18.10;99.90;;;;;;5102892;28;20044;-68
2023/10/13 16:01:41;;;;;;;18.10;7.18;;;17.90;99.90;;;;;;5105564;27;20036;-68
2023/10/13 16:04:18;;;;;;;10.35;5.75;;;17.80;99.90;;;;;;5101195;27;20126;-68
2023/10/13 16:06:46;;;;;;;9.52;5.88;;;17.80;99.90;;;;;;5106009;27;20050;-68
2023/10/13 16:09:15;;;;;;;12.32;5.80;;;17.80;99.90;;;;;;5106848;27;20027;-68
2023/10/13 16:11:45;;;;;;;10.43;5.55;;;17.80;99.90;;;;;;5106827;28;20044;-68
2023/10/13 16:14:18;;;;;;;12.77;5.00;;;18.00;99.90;;;;;;5107245;28;20153;-68
2023/10/13 16:16:49;;;;;;;10.85;5.20;;;17.80;99.90;;;;;;5104530;27;20074;-67
2023/10/13 16:19:21;;;;;;;9.55;4.35;;;17.80;99.90;;;;;;5102391;27;20051;-67
2023/10/13 16:21:48;;;;;;;8.57;4.28;;;17.80;99.90;;;;;;5105309;28;20043;-67
2023/10/13 16:24:17;;;;;;;10.88;3.30;;;17.80;99.90;;;;;;5105767;28;20119;-67
2023/10/13 16:26:52;;;;;;;9.32;3.20;;;17.80;99.90;;;;;;5106250;27;20040;-67
2023/10/13 16:29:18;;;;;;;5.88;3.05;;;17.80;99.90;;;;;;5103394;28;20039;-67
2023/10/13 16:31:45;;;;;;;10.32;3.80;;;17.80;99.90;;;;;;5105513;27;20039;-67
2023/10/13 16:34:15;;;;;;;10.98;3.10;;;17.80;99.90;;;;;;5103753;27;20473;-67
2023/10/13 16:36:43;;;;;;;7.75;3.15;;;17.80;99.90;;;;;;5100552;27;20044;-67